sensor_id;sensor_type;location;lat;lon;timestamp;temperature;humidity
4922;DHT22;16625;53.624;10.106;2023-05-02T05:49:51;7.50;99.90
4922;DHT22;16625;53.624;10.106;2023-05-02T05:52:18;7.50;99.90
4922;DHT22;16625;53.624;10.106;2023-05-02T05:54:48;7.60;99.90
4922;DHT22;16625;53.624;10.106;2023-05-02T05:57:19;7.50;99.90
4922;DHT22;16625;53.624;10.106;2023-05-02T05:59:47;7.60;99.90
4922;DHT22;16625;53.624;10.106;2023-05-02T06:02:14;7.60;99.90
4922;DHT22;16625;53.624;10.106;2023-05-02T06:04:48;7.60;99.90
4922;DHT22;16625;53.624;10.106;2023-05-02T06:07:15;7.90;99.90
4922;DHT22;16625;53.624;10.106;2023-05-02T06:09:42;8.40;99.90
4922;DHT22;16625;53.624;10.106;2023-05-02T06:12:09;7.70;99.90
4922;DHT22;16625;53.624;10.106;2023-05-02T06:14:37;7.50;99.90
4922;DHT22;16625;53.624;10.106;2023-05-02T06:17:03;7.40;99.90
4922;DHT22;16625;53.624;10.106;2023-05-02T06:19:31;7.50;99.90
4922;DHT22;16625;53.624;10.106;2023-05-02T06:21:59;7.50;99.90
4922;DHT22;16625;53.624;10.106;2023-05-02T06:24:26;7.60;99.90
4922;DHT22;16625;53.624;10.106;2023-05-02T06:26:53;7.70;99.90
4922;DHT22;16625;53.624;10.106;2023-05-02T06:29:22;8.40;99.90
4922;DHT22;16625;53.624;10.106;2023-05-02T06:31:49;7.80;99.90
4922;DHT22;16625;53.624;10.106;2023-05-02T06:34:20;7.70;99.90
4922;DHT22;16625;53.624;10.106;2023-05-02T06:36:47;7.70;99.90
4922;DHT22;16625;53.624;10.106;2023-05-02T06:39:15;7.70;99.90
4922;DHT22;16625;53.624;10.106;2023-05-02T06:41:42;7.70;99.90
4922;DHT22;16625;53.624;10.106;2023-05-02T06:44:09;7.70;99.90
4922;DHT22;16625;53.624;10.106;2023-05-02T06:46:36;7.70;99.90
4922;DHT22;16625;53.624;10.106;2023-05-02T06:49:03;7.80;99.90
4922;DHT22;16625;53.624;10.106;2023-05-02T06:51:30;7.80;99.90
4922;DHT22;16625;53.624;10.106;2023-05-02T06:53:57;7.80;99.90
4922;DHT22;16625;53.624;10.106;2023-05-02T06:56:26;7.70;99.90
4922;DHT22;16625;53.624;10.106;2023-05-02T06:58:53;7.80;99.90
4922;DHT22;16625;53.624;10.106;2023-05-02T07:01:22;7.80;99.90
4922;DHT22;16625;53.624;10.106;2023-05-02T07:03:51;7.90;99.90
4922;DHT22;16625;53.624;10.106;2023-05-02T07:06:18;7.90;99.90
4922;DHT22;16625;53.624;10.106;2023-05-02T07:08:46;8.00;99.90
4922;DHT22;16625;53.624;10.106;2023-05-02T07:11:13;8.10;99.90
4922;DHT22;16625;53.624;10.106;2023-05-02T07:13:41;8.20;99.90
4922;DHT22;16625;53.624;10.106;2023-05-02T07:16:08;8.20;99.90
4922;DHT22;16625;53.624;10.106;2023-05-02T07:18:35;7.90;99.90
4922;DHT22;16625;53.624;10.106;2023-05-02T07:21:03;8.50;99.90
4922;DHT22;16625;53.624;10.106;2023-05-02T07:23:30;8.30;99.90
4922;DHT22;16625;53.624;10.106;2023-05-02T07:25:57;8.40;99.90
4922;DHT22;16625;53.624;10.106;2023-05-02T07:28:24;8.50;99.90
4922;DHT22;16625;53.624;10.106;2023-05-02T07:30:53;8.50;99.90
4922;DHT22;16625;53.624;10.106;2023-05-02T07:33:19;8.40;99.90
4922;DHT22;16625;53.624;10.106;2023-05-02T07:35:48;8.30;99.90
4922;DHT22;16625;53.624;10.106;2023-05-02T07:38:15;8.40;99.90
4922;DHT22;16625;53.624;10.106;2023-05-02T07:40:42;8.50;99.90
4922;DHT22;16625;53.624;10.106;2023-05-02T07:43:12;8.60;99.90
4922;DHT22;16625;53.624;10.106;2023-05-02T07:45:40;8.70;99.90
4922;DHT22;16625;53.624;10.106;2023-05-02T07:48:08;8.60;99.90
4922;DHT22;16625;53.624;10.106;2023-05-02T07:50:35;8.70;99.90
4922;DHT22;16625;53.624;10.106;2023-05-02T07:53:03;8.60;99.90
4922;DHT22;16625;53.624;10.106;2023-05-02T07:55:30;8.70;99.90
4922;DHT22;16625;53.624;10.106;2023-05-02T07:57:57;8.90;99.90
4922;DHT22;16625;53.624;10.106;2023-05-02T08:00:26;9.00;99.90
4922;DHT22;16625;53.624;10.106;2023-05-02T08:02:53;8.80;99.90
4922;DHT22;16625;53.624;10.106;2023-05-02T08:05:22;8.80;99.90
4922;DHT22;16625;53.624;10.106;2023-05-02T08:07:51;8.70;99.90
4922;DHT22;16625;53.624;10.106;2023-05-02T08:10:19;8.70;99.90
4922;DHT22;16625;53.624;10.106;2023-05-02T08:12:46;8.80;99.90
4922;DHT22;16625;53.624;10.106;2023-05-02T08:15:28;9.00;99.90
4922;DHT22;16625;53.624;10.106;2023-05-02T08:18:09;9.30;99.90
4922;DHT22;16625;53.624;10.106;2023-05-02T08:20:59;9.30;99.90
4922;DHT22;16625;53.624;10.106;2023-05-02T08:23:50;9.60;99.90
4922;DHT22;16625;53.624;10.106;2023-05-02T08:26:43;9.80;99.90
4922;DHT22;16625;53.624;10.106;2023-05-02T08:29:15;9.70;99.90
4922;DHT22;16625;53.624;10.106;2023-05-02T08:31:42;9.60;99.90
4922;DHT22;16625;53.624;10.106;2023-05-02T08:34:30;9.50;99.90
4922;DHT22;16625;53.624;10.106;2023-05-02T09:03:32;10.10;99.90
4922;DHT22;16625;53.624;10.106;2023-05-02T09:06:05;10.20;99.90
4922;DHT22;16625;53.624;10.106;2023-05-02T09:08:34;10.40;99.90
4922;DHT22;16625;53.624;10.106;2023-05-02T09:11:03;10.60;99.90
4922;DHT22;16625;53.624;10.106;2023-05-02T09:13:32;10.60;99.90
4922;DHT22;16625;53.624;10.106;2023-05-02T09:16:03;10.60;99.90
4922;DHT22;16625;53.624;10.106;2023-05-02T09:18:34;10.80;99.90
4922;DHT22;16625;53.624;10.106;2023-05-02T09:21:04;10.70;99.90
4922;DHT22;16625;53.624;10.106;2023-05-02T09:23:53;10.70;99.90
4922;DHT22;16625;53.624;10.106;2023-05-02T09:26:23;10.70;99.90
4922;DHT22;16625;53.624;10.106;2023-05-02T09:29:45;10.80;99.90
4922;DHT22;16625;53.624;10.106;2023-05-02T09:32:22;10.60;99.90
4922;DHT22;16625;53.624;10.106;2023-05-02T09:35:22;10.40;99.90
4922;DHT22;16625;53.624;10.106;2023-05-02T09:50:53;11.20;99.90
4922;DHT22;16625;53.624;10.106;2023-05-02T09:53:20;12.50;99.90
4922;DHT22;16625;53.624;10.106;2023-05-02T09:56:01;11.60;99.90
4922;DHT22;16625;53.624;10.106;2023-05-02T09:58:31;12.50;99.90
4922;DHT22;16625;53.624;10.106;2023-05-02T10:01:33;11.00;99.90
4922;DHT22;16625;53.624;10.106;2023-05-02T10:04:04;12.50;99.90
4922;DHT22;16625;53.624;10.106;2023-05-02T10:07:02;10.70;99.90
4922;DHT22;16625;53.624;10.106;2023-05-02T10:12:56;10.40;99.90
4922;DHT22;16625;53.624;10.106;2023-05-02T10:49:06;11.60;99.90
4922;DHT22;16625;53.624;10.106;2023-05-02T11:08:33;11.80;99.90
4922;DHT22;16625;53.624;10.106;2023-05-02T11:34:41;11.50;99.90
4922;DHT22;16625;53.624;10.106;2023-05-02T11:37:25;11.70;99.90
4922;DHT22;16625;53.624;10.106;2023-05-02T11:41:30;11.80;99.90
4922;DHT22;16625;53.624;10.106;2023-05-02T11:43:30;11.80;99.90
4922;DHT22;16625;53.624;10.106;2023-05-02T11:46:12;11.90;99.90
4922;DHT22;16625;53.624;10.106;2023-05-02T11:48:59;11.90;99.90
4922;DHT22;16625;53.624;10.106;2023-05-02T11:51:30;11.50;99.90
4922;DHT22;16625;53.624;10.106;2023-05-02T11:53:58;11.30;99.90
4922;DHT22;16625;53.624;10.106;2023-05-02T11:56:25;11.30;99.90
4922;DHT22;16625;53.624;10.106;2023-05-02T11:59:06;11.30;99.90
4922;DHT22;16625;53.624;10.106;2023-05-02T12:01:39;11.40;99.90
4922;DHT22;16625;53.624;10.106;2023-05-02T12:04:14;11.50;99.90
4922;DHT22;16625;53.624;10.106;2023-05-02T12:06:57;11.60;99.90
4922;DHT22;16625;53.624;10.106;2023-05-02T12:09:34;11.90;99.90
4922;DHT22;16625;53.624;10.106;2023-05-02T12:12:10;11.80;99.90
4922;DHT22;16625;53.624;10.106;2023-05-02T12:14:38;11.90;99.90
4922;DHT22;16625;53.624;10.106;2023-05-02T12:17:58;11.90;99.90
4922;DHT22;16625;53.624;10.106;2023-05-02T12:32:36;10.90;99.90
4922;DHT22;16625;53.624;10.106;2023-05-02T12:49:26;11.70;99.90
4922;DHT22;16625;53.624;10.106;2023-05-02T12:55:46;11.50;99.90
4922;DHT22;16625;53.624;10.106;2023-05-02T13:02:49;11.40;99.90
4922;DHT22;16625;53.624;10.106;2023-05-02T13:05:45;11.20;99.90
4922;DHT22;16625;53.624;10.106;2023-05-02T13:09:10;11.20;99.90
4922;DHT22;16625;53.624;10.106;2023-05-02T13:12:25;11.50;99.90
4922;DHT22;16625;53.624;10.106;2023-05-02T13:15:21;11.60;99.90
4922;DHT22;16625;53.624;10.106;2023-05-02T13:18:40;11.70;99.90
4922;DHT22;16625;53.624;10.106;2023-05-02T13:26:18;12.50;99.90
4922;DHT22;16625;53.624;10.106;2023-05-02T13:30:31;12.90;99.90
4922;DHT22;16625;53.624;10.106;2023-05-02T13:33:28;12.60;99.90
4922;DHT22;16625;53.624;10.106;2023-05-02T13:36:50;12.30;99.90
4922;DHT22;16625;53.624;10.106;2023-05-02T13:39:37;12.00;99.90
4922;DHT22;16625;53.624;10.106;2023-05-02T13:42:20;12.00;99.90
4922;DHT22;16625;53.624;10.106;2023-05-02T13:45:29;11.90;99.90
4922;DHT22;16625;53.624;10.106;2023-05-02T13:48:33;12.00;99.90
4922;DHT22;16625;53.624;10.106;2023-05-02T13:55:20;12.50;99.90
4922;DHT22;16625;53.624;10.106;2023-05-02T13:59:14;12.10;99.90
4922;DHT22;16625;53.624;10.106;2023-05-02T14:12:56;11.50;99.90
4922;DHT22;16625;53.624;10.106;2023-05-02T14:23:01;11.30;99.90
4922;DHT22;16625;53.624;10.106;2023-05-02T14:26:03;11.70;99.90
4922;DHT22;16625;53.624;10.106;2023-05-02T14:35:44;11.50;99.90
4922;DHT22;16625;53.624;10.106;2023-05-02T14:42:02;11.50;99.90
4922;DHT22;16625;53.624;10.106;2023-05-02T14:50:51;11.20;99.90
4922;DHT22;16625;53.624;10.106;2023-05-02T14:54:12;11.30;99.90
4922;DHT22;16625;53.624;10.106;2023-05-02T14:56:50;11.20;99.90
4922;DHT22;16625;53.624;10.106;2023-05-02T15:05:06;11.50;99.90
4922;DHT22;16625;53.624;10.106;2023-05-02T15:33:25;11.80;99.90
4922;DHT22;16625;53.624;10.106;2023-05-02T15:36:26;11.60;99.90
4922;DHT22;16625;53.624;10.106;2023-05-02T15:43:04;11.40;99.90
4922;DHT22;16625;53.624;10.106;2023-05-02T15:46:02;11.30;99.90
4922;DHT22;16625;53.624;10.106;2023-05-02T15:52:06;11.20;99.90
4922;DHT22;16625;53.624;10.106;2023-05-02T15:55:00;11.20;99.90
4922;DHT22;16625;53.624;10.106;2023-05-02T15:57:40;11.40;99.90
4922;DHT22;16625;53.624;10.106;2023-05-02T16:00:25;11.30;99.90
4922;DHT22;16625;53.624;10.106;2023-05-02T16:24:15;12.60;99.90
4922;DHT22;16625;53.624;10.106;2023-05-02T16:30:08;13.70;99.90
4922;DHT22;16625;53.624;10.106;2023-05-02T16:33:18;14.30;99.90
4922;DHT22;16625;53.624;10.106;2023-05-02T16:57:13;12.50;99.90
4922;DHT22;16625;53.624;10.106;2023-05-02T17:02:59;11.90;99.90
4922;DHT22;16625;53.624;10.106;2023-05-02T17:16:55;10.70;99.90
4922;DHT22;16625;53.624;10.106;2023-05-02T17:18:57;10.90;99.90
4922;DHT22;16625;53.624;10.106;2023-05-02T17:22:29;11.20;99.90
4922;DHT22;16625;53.624;10.106;2023-05-02T17:25:42;11.20;99.90
4922;DHT22;16625;53.624;10.106;2023-05-02T17:28:38;10.90;99.90
4922;DHT22;16625;53.624;10.106;2023-05-02T17:31:36;10.50;99.90
4922;DHT22;16625;53.624;10.106;2023-05-02T17:35:40;10.30;99.90
4922;DHT22;16625;53.624;10.106;2023-05-02T17:54:45;9.80;99.90
4922;DHT22;16625;53.624;10.106;2023-05-02T18:01:47;9.70;99.90
4922;DHT22;16625;53.624;10.106;2023-05-02T18:11:21;9.60;99.90
4922;DHT22;16625;53.624;10.106;2023-05-02T18:17:53;9.40;99.90
4922;DHT22;16625;53.624;10.106;2023-05-02T18:21:20;9.30;99.90
4922;DHT22;16625;53.624;10.106;2023-05-02T18:25:49;9.30;99.90
4922;DHT22;16625;53.624;10.106;2023-05-02T18:33:10;9.10;99.90
4922;DHT22;16625;53.624;10.106;2023-05-02T18:34:40;9.10;99.90
4922;DHT22;16625;53.624;10.106;2023-05-02T18:40:18;9.00;99.90
4922;DHT22;16625;53.624;10.106;2023-05-02T18:43:04;9.00;99.90
4922;DHT22;16625;53.624;10.106;2023-05-02T19:02:18;8.80;99.90
4922;DHT22;16625;53.624;10.106;2023-05-02T19:05:16;8.80;99.90
4922;DHT22;16625;53.624;10.106;2023-05-02T19:08:11;8.90;99.90
4922;DHT22;16625;53.624;10.106;2023-05-02T19:10:56;8.90;99.90
4922;DHT22;16625;53.624;10.106;2023-05-02T19:13:36;8.80;99.90
4922;DHT22;16625;53.624;10.106;2023-05-02T19:16:12;8.70;99.90
4922;DHT22;16625;53.624;10.106;2023-05-02T19:18:39;8.60;99.90
4922;DHT22;16625;53.624;10.106;2023-05-02T19:21:08;9.10;99.90
